Time;durP1;ratioP1;P1;durP2;ratioP2;P2;SDS_P1;SDS_P2;PMS_P1;PMS_P2;Temp;Humidity;BMP_temperature;BMP_pressure;BME280_temperature;BME280_humidity;BME280_pressure;Samples;Min_cycle;Max_cycle;Signal;HPM_P1;HPM_P2
2022/08/03 00:00:38;;;;;;;3.17;1.33;;;20.10;99.90;;;;;;5027520;28;20052;-73
2022/08/03 00:03:07;;;;;;;2.42;1.10;;;20.10;99.90;;;;;;5028432;28;20048;-74
2022/08/03 00:05:33;;;;;;;3.85;1.30;;;20.10;99.90;;;;;;5025297;28;20042;-73
2022/08/03 00:08:01;;;;;;;5.72;1.23;;;20.00;99.90;;;;;;5016109;28;20091;-74
2022/08/03 00:10:27;;;;;;;4.95;1.10;;;20.00;99.90;;;;;;5027096;28;20128;-73
2022/08/03 00:12:53;;;;;;;4.05;1.10;;;20.10;99.90;;;;;;5033067;28;20198;-73
2022/08/03 00:15:18;;;;;;;4.60;1.23;;;20.00;99.90;;;;;;5025557;28;20128;-73
2022/08/03 00:17:44;;;;;;;3.80;1.25;;;20.00;99.90;;;;;;5029323;28;20048;-73
2022/08/03 00:20:10;;;;;;;2.67;1.00;;;20.00;99.90;;;;;;5027514;28;20084;-74
2022/08/03 00:22:36;;;;;;;;;;;20.00;99.90;;;;;;5028284;28;20037;-73
2022/08/03 00:25:02;;;;;;;3.30;0.93;;;20.00;99.90;;;;;;5025669;28;20027;-73
2022/08/03 00:27:27;;;;;;;2.50;0.70;;;20.00;99.90;;;;;;5024800;28;20041;-73
2022/08/03 00:29:53;;;;;;;3.10;0.98;;;20.00;99.90;;;;;;5027154;28;20034;-73
2022/08/03 00:32:18;;;;;;;4.18;1.42;;;19.90;99.90;;;;;;5026119;28;20053;-73
2022/08/03 00:34:44;;;;;;;3.95;1.00;;;19.90;99.90;;;;;;5026545;28;20514;-73
2022/08/03 00:37:10;;;;;;;3.45;0.95;;;20.00;99.90;;;;;;5022738;28;20041;-73
2022/08/03 00:39:35;;;;;;;4.15;0.98;;;19.90;99.90;;;;;;5026173;28;20398;-73
2022/08/03 00:42:04;;;;;;;6.15;1.83;;;19.90;99.90;;;;;;5029947;28;20068;-73
2022/08/03 00:44:30;;;;;;;2.15;0.90;;;19.90;99.90;;;;;;5033297;28;20037;-73
2022/08/03 00:46:56;;;;;;;5.70;1.90;;;19.90;99.90;;;;;;5025919;28;20423;-73
2022/08/03 00:49:21;;;;;;;3.25;0.93;;;19.90;99.90;;;;;;5017509;28;20123;-73
2022/08/03 00:51:47;;;;;;;2.88;1.02;;;19.90;99.90;;;;;;5026043;28;20509;-73
2022/08/03 00:54:14;;;;;;;1.80;0.93;;;19.90;99.90;;;;;;5029152;28;20041;-73
2022/08/03 00:56:41;;;;;;;4.43;1.00;;;19.90;99.90;;;;;;5024395;28;20045;-73
2022/08/03 00:59:09;;;;;;;4.07;1.13;;;19.90;99.90;;;;;;5024824;28;20069;-73
2022/08/03 01:01:35;;;;;;;1.17;0.60;;;19.90;99.90;;;;;;5026229;28;20036;-73
2022/08/03 01:04:01;;;;;;;2.47;1.10;;;19.90;99.90;;;;;;5034346;28;20033;-74
2022/08/03 01:07:04;;;;;;;3.22;1.10;;;19.90;99.90;;;;;;5034020;28;20431;-74
2022/08/03 01:10:18;;;;;;;2.90;1.08;;;19.90;99.90;;;;;;5021620;28;20445;-74
2022/08/03 01:13:02;;;;;;;3.47;0.90;;;19.90;99.90;;;;;;4973880;28;20050;-73
2022/08/03 01:15:58;;;;;;;8.35;1.45;;;19.80;99.90;;;;;;5019861;28;20798;-80
2022/08/03 01:18:54;;;;;;;4.10;1.08;;;19.80;99.90;;;;;;5014951;28;20034;-75
2022/08/03 01:21:56;;;;;;;3.83;1.15;;;19.70;99.90;;;;;;5013669;28;20410;-74
2022/08/03 01:24:49;;;;;;;4.10;0.93;;;19.70;99.90;;;;;;5004004;28;20486;-74
2022/08/03 01:27:22;;;;;;;3.47;1.17;;;19.70;99.90;;;;;;5028016;28;20060;-74
2022/08/03 01:30:11;;;;;;;2.70;0.93;;;19.60;99.90;;;;;;5022612;28;20037;-74
2022/08/03 01:33:18;;;;;;;2.92;0.95;;;19.60;99.90;;;;;;5019641;28;20053;-73
2022/08/03 01:36:03;;;;;;;3.30;1.30;;;19.60;99.90;;;;;;4972149;28;20050;-74
2022/08/03 01:38:41;;;;;;;3.50;1.00;;;19.60;99.90;;;;;;5032168;28;20161;-74
2022/08/03 01:41:23;;;;;;;3.75;1.48;;;19.60;99.90;;;;;;5027192;28;20103;-74
2022/08/03 01:43:52;;;;;;;2.50;0.98;;;19.50;99.90;;;;;;5027527;28;20037;-74
2022/08/03 01:46:19;;;;;;;6.80;0.90;;;19.50;99.90;;;;;;5026101;28;20041;-74
2022/08/03 01:48:47;;;;;;;5.60;1.40;;;19.40;99.90;;;;;;5007124;28;20343;-74
2022/08/03 01:51:16;;;;;;;4.10;0.90;;;19.50;99.90;;;;;;5019155;28;20069;-74
2022/08/03 01:53:43;;;;;;;1.92;0.60;;;19.50;99.90;;;;;;5024501;28;20049;-74
2022/08/03 01:56:10;;;;;;;3.28;0.95;;;19.50;99.90;;;;;;5026111;28;20069;-74
2022/08/03 01:58:37;;;;;;;2.78;1.05;;;19.50;99.90;;;;;;5024915;28;20045;-75
2022/08/03 02:01:04;;;;;;;2.65;0.80;;;19.50;99.90;;;;;;5026974;28;20053;-74
2022/08/03 02:03:33;;;;;;;3.45;0.70;;;19.50;99.90;;;;;;5024527;28;20129;-74
2022/08/03 02:05:59;;;;;;;2.83;1.17;;;19.50;99.90;;;;;;5026629;28;20041;-74
2022/08/03 02:08:27;;;;;;;3.47;0.80;;;19.40;99.90;;;;;;5034018;28;20045;-73
2022/08/03 02:10:56;;;;;;;4.30;1.00;;;19.40;99.90;;;;;;5028465;28;20087;-73
2022/08/03 02:13:23;;;;;;;6.20;1.08;;;19.50;99.90;;;;;;5025904;28;20103;-73
2022/08/03 02:15:50;;;;;;;7.20;1.23;;;19.40;99.90;;;;;;5008600;28;20494;-73
2022/08/03 02:18:18;;;;;;;1.85;0.73;;;19.40;99.90;;;;;;5025844;28;20037;-74
2022/08/03 02:20:45;;;;;;;2.15;0.73;;;19.40;99.90;;;;;;5023705;28;20488;-74
2022/08/03 02:23:11;;;;;;;2.42;1.17;;;19.40;99.90;;;;;;5026590;28;20030;-74
2022/08/03 02:25:43;;;;;;;;;;;19.40;99.90;;;;;;5025091;28;20056;-73
2022/08/03 02:28:18;;;;;;;4.00;1.00;;;19.40;99.90;;;;;;5025695;28;19921;-74
2022/08/03 02:30:50;;;;;;;3.83;1.10;;;19.40;99.90;;;;;;5041789;22;20037;-72
2022/08/03 02:33:23;;;;;;;2.47;0.70;;;19.40;99.90;;;;;;5031152;28;20038;-72
2022/08/03 02:35:51;;;;;;;5.47;0.88;;;19.30;99.90;;;;;;5027838;28;20120;-72
2022/08/03 02:38:21;;;;;;;5.57;0.93;;;19.30;99.90;;;;;;5025372;28;20037;-72
2022/08/03 02:40:49;;;;;;;3.30;0.98;;;19.40;99.90;;;;;;5022467;28;20041;-72
2022/08/03 02:43:18;;;;;;;6.57;1.17;;;19.40;99.90;;;;;;5025661;28;20394;-72
2022/08/03 02:45:47;;;;;;;2.85;1.35;;;19.30;99.90;;;;;;5024507;28;20148;-72
2022/08/03 02:48:23;;;;;;;5.15;0.88;;;19.30;99.90;;;;;;5025658;28;20144;-72
2022/08/03 02:50:54;;;;;;;2.92;0.75;;;19.30;99.90;;;;;;5024244;28;20049;-72
2022/08/03 02:53:21;;;;;;;5.63;0.80;;;19.30;99.90;;;;;;5027384;28;20044;-72
2022/08/03 02:55:47;;;;;;;6.35;1.00;;;19.30;99.90;;;;;;5026096;28;20100;-72
2022/08/03 02:58:18;;;;;;;4.85;1.13;;;19.20;99.90;;;;;;5025365;28;20153;-72
2022/08/03 03:00:44;;;;;;;2.85;0.98;;;19.30;99.90;;;;;;5027280;28;20560;-72
2022/08/03 03:03:10;;;;;;;5.32;1.88;;;19.30;99.90;;;;;;5027256;28;20041;-72
2022/08/03 03:05:37;;;;;;;5.40;0.80;;;19.20;99.90;;;;;;5025374;28;20065;-72
2022/08/03 03:08:03;;;;;;;3.95;1.05;;;19.20;99.90;;;;;;5030139;28;20041;-72
2022/08/03 03:10:30;;;;;;;3.03;0.90;;;19.20;99.90;;;;;;5026129;28;20372;-72
2022/08/03 03:12:57;;;;;;;3.97;0.90;;;19.20;99.90;;;;;;5030531;28;20068;-72
2022/08/03 03:15:25;;;;;;;4.22;1.20;;;19.20;99.90;;;;;;5022502;28;20782;-72
2022/08/03 03:17:52;;;;;;;6.40;1.08;;;19.20;99.90;;;;;;5025469;28;20053;-72
2022/08/03 03:20:20;;;;;;;2.00;0.93;;;19.20;99.90;;;;;;5030127;28;20053;-72
2022/08/03 03:22:48;;;;;;;7.38;1.17;;;19.10;99.90;;;;;;5030845;28;20033;-72
2022/08/03 03:25:14;;;;;;;6.05;1.20;;;19.10;99.90;;;;;;5022331;28;20516;-72
2022/08/03 03:27:40;;;;;;;;;;;19.10;99.90;;;;;;5024965;28;20041;-72
2022/08/03 03:30:06;;;;;;;5.70;1.02;;;19.10;99.90;;;;;;5024671;28;20007;-72
2022/08/03 03:32:33;;;;;;;5.93;1.02;;;19.10;99.90;;;;;;5023545;28;20091;-72
2022/08/03 03:34:59;;;;;;;5.30;1.50;;;19.00;99.90;;;;;;5018567;28;20057;-72
2022/08/03 03:37:28;;;;;;;2.40;0.90;;;19.10;99.90;;;;;;5011773;28;20412;-72
2022/08/03 03:39:54;;;;;;;8.95;1.48;;;19.00;99.90;;;;;;5024242;28;20092;-72
2022/08/03 03:42:20;;;;;;;3.70;0.93;;;19.00;99.90;;;;;;5025852;28;20044;-72
2022/08/03 03:44:45;;;;;;;4.60;0.88;;;19.10;99.90;;;;;;5021409;28;20033;-72
2022/08/03 03:47:12;;;;;;;8.35;1.83;;;19.00;99.90;;;;;;5026709;28;20521;-72
2022/08/03 03:49:38;;;;;;;4.43;1.00;;;19.00;99.90;;;;;;5026649;28;20289;-72
2022/08/03 03:52:04;;;;;;;2.75;0.98;;;19.00;99.90;;;;;;5025932;28;20045;-72
2022/08/03 03:54:40;;;;;;;8.80;1.50;;;19.00;99.90;;;;;;5027539;28;20037;-72
2022/08/03 03:57:06;;;;;;;5.65;1.25;;;19.00;99.90;;;;;;5026045;28;20390;-71
2022/08/03 03:59:32;;;;;;;6.63;1.02;;;19.00;99.90;;;;;;5024917;28;20212;-72
2022/08/03 04:01:58;;;;;;;7.63;1.08;;;19.00;99.90;;;;;;5021743;28;20506;-72
2022/08/03 04:12:56;;;;;;;3.95;1.38;;;18.90;99.90;;;;;;5029722;28;20090;-72
2022/08/03 04:15:24;;;;;;;4.00;1.48;;;18.90;99.90;;;;;;5030357;28;20080;-72
2022/08/03 04:17:54;;;;;;;6.15;1.35;;;18.90;99.90;;;;;;5021024;28;20045;-72
2022/08/03 04:20:21;;;;;;;3.60;1.50;;;18.90;99.90;;;;;;5007632;28;20042;-72
2022/08/03 04:22:49;;;;;;;5.45;1.50;;;18.90;99.90;;;;;;5025483;28;20037;-72
2022/08/03 04:25:18;;;;;;;6.10;1.17;;;18.90;99.90;;;;;;5002510;28;20064;-72
2022/08/03 04:27:46;;;;;;;6.28;1.92;;;18.90;99.90;;;;;;5019594;28;20050;-72
2022/08/03 04:30:13;;;;;;;8.35;0.90;;;18.90;99.90;;;;;;5026223;28;20037;-72
2022/08/03 04:32:42;;;;;;;5.50;1.30;;;18.80;99.90;;;;;;5027934;28;20183;-72
2022/08/03 04:35:08;;;;;;;2.70;1.50;;;18.90;99.90;;;;;;5025747;28;20044;-72
2022/08/03 04:37:50;;;;;;;3.05;1.20;;;18.90;99.90;;;;;;5017481;28;20045;-72
2022/08/03 04:40:24;;;;;;;4.93;1.58;;;18.90;99.90;;;;;;5036380;28;20029;-72
2022/08/03 04:42:54;;;;;;;5.25;1.33;;;18.80;99.90;;;;;;5041976;28;20036;-72
2022/08/03 04:45:20;;;;;;;4.55;0.98;;;18.80;99.90;;;;;;5032789;28;20041;-72
2022/08/03 04:47:46;;;;;;;4.07;1.55;;;18.90;99.90;;;;;;5028177;28;20350;-72
2022/08/03 04:50:12;;;;;;;5.82;1.33;;;18.90;99.90;;;;;;5030395;28;20087;-72
2022/08/03 04:52:38;;;;;;;;;;;18.90;99.90;;;;;;5037613;28;20059;-72
2022/08/03 04:55:04;;;;;;;3.58;1.40;;;18.90;99.90;;;;;;5031355;28;19916;-72
2022/08/03 04:57:29;;;;;;;2.92;0.95;;;18.90;99.90;;;;;;5029278;28;20042;-72
2022/08/03 04:59:55;;;;;;;4.13;1.33;;;18.90;99.90;;;;;;5027774;28;20033;-72
2022/08/03 05:02:22;;;;;;;4.03;1.23;;;18.90;99.90;;;;;;5029453;28;20571;-72
2022/08/03 05:04:48;;;;;;;5.20;1.50;;;18.90;99.90;;;;;;5024619;28;20045;-72
2022/08/03 05:07:14;;;;;;;;;;;18.90;99.90;;;;;;5008559;28;20084;-72
2022/08/03 05:09:40;;;;;;;2.97;1.33;;;18.90;99.90;;;;;;5027874;28;19917;-72
2022/08/03 05:12:06;;;;;;;3.58;1.13;;;18.90;99.90;;;;;;5024622;28;20033;-72
2022/08/03 05:14:32;;;;;;;;;;;18.90;99.90;;;;;;5035452;28;20043;-72
2022/08/03 05:16:58;;;;;;;6.68;1.45;;;19.00;99.90;;;;;;5030648;28;19925;-72
2022/08/03 05:19:24;;;;;;;6.40;1.40;;;18.90;99.90;;;;;;5029233;28;20041;-72
2022/08/03 05:21:49;;;;;;;4.38;1.70;;;18.90;99.90;;;;;;5028760;28;20087;-72
2022/08/03 05:24:15;;;;;;;4.53;1.10;;;19.00;99.90;;;;;;5030502;28;20033;-72
2022/08/03 05:26:40;;;;;;;3.03;1.38;;;19.00;99.90;;;;;;5031206;28;20088;-72
2022/08/03 05:29:06;;;;;;;5.85;1.17;;;19.00;99.90;;;;;;5030614;28;20475;-71
2022/08/03 05:31:32;;;;;;;3.65;1.45;;;19.00;99.90;;;;;;5030895;28;20117;-72
2022/08/03 05:33:57;;;;;;;5.93;1.65;;;19.00;99.90;;;;;;5023770;28;20409;-72
2022/08/03 05:36:23;;;;;;;4.82;1.40;;;19.00;99.90;;;;;;5016848;28;20133;-72
2022/08/03 05:38:48;;;;;;;7.85;1.80;;;19.00;99.90;;;;;;5032262;28;20076;-72
2022/08/03 05:41:14;;;;;;;5.57;1.95;;;19.00;99.90;;;;;;5031438;28;20232;-72
2022/08/03 05:43:40;;;;;;;2.95;1.30;;;19.10;99.90;;;;;;5015111;28;20437;-73
2022/08/03 05:46:08;;;;;;;10.20;1.60;;;19.10;99.90;;;;;;5029301;28;20076;-73
2022/08/03 05:48:34;;;;;;;5.90;1.13;;;19.20;99.90;;;;;;5013091;28;20088;-72
2022/08/03 05:50:59;;;;;;;4.13;1.60;;;19.10;99.90;;;;;;5027735;28;20053;-72
2022/08/03 05:53:25;;;;;;;3.33;1.08;;;19.20;99.90;;;;;;5029780;28;20116;-74
2022/08/03 05:55:51;;;;;;;5.05;1.40;;;19.20;99.90;;;;;;5031034;28;20041;-75
2022/08/03 05:58:16;;;;;;;7.40;1.30;;;19.20;99.90;;;;;;5031006;28;20402;-74
2022/08/03 06:00:42;;;;;;;5.78;1.80;;;19.30;99.90;;;;;;5032038;28;20041;-74
2022/08/03 06:03:08;;;;;;;5.93;1.60;;;19.30;99.90;;;;;;5030917;28;20147;-73
2022/08/03 06:05:35;;;;;;;4.82;1.92;;;19.30;99.90;;;;;;5025969;28;20029;-72
2022/08/03 06:08:01;;;;;;;6.03;1.10;;;19.40;99.90;;;;;;5030601;28;20045;-73
2022/08/03 06:10:27;;;;;;;6.22;1.70;;;19.40;99.90;;;;;;5034116;28;20124;-74
2022/08/03 06:12:53;;;;;;;6.78;1.48;;;19.40;99.90;;;;;;5033463;28;20124;-75
2022/08/03 06:15:18;;;;;;;9.23;2.85;;;19.50;99.90;;;;;;5032905;28;20465;-75
2022/08/03 06:17:46;;;;;;;4.57;1.35;;;19.50;99.90;;;;;;5026048;28;20053;-72
2022/08/03 06:20:11;;;;;;;4.65;1.88;;;19.50;99.90;;;;;;5023342;28;20049;-72
2022/08/03 06:22:37;;;;;;;4.57;1.58;;;19.60;99.90;;;;;;5025900;28;20421;-73
2022/08/03 06:25:03;;;;;;;3.70;1.30;;;19.70;99.90;;;;;;5037720;28;20120;-72
2022/08/03 06:27:28;;;;;;;8.25;1.50;;;19.70;99.90;;;;;;5022994;28;20037;-72
2022/08/03 06:29:54;;;;;;;10.48;2.00;;;19.70;99.90;;;;;;5026235;28;20064;-72
2022/08/03 06:32:21;;;;;;;3.28;1.80;;;19.80;99.90;;;;;;5016684;28;20037;-72
2022/08/03 06:34:47;;;;;;;4.22;1.75;;;19.80;99.90;;;;;;5021686;28;20069;-73
2022/08/03 06:37:13;;;;;;;;;;;19.90;99.90;;;;;;5032345;28;20045;-72
2022/08/03 06:39:39;;;;;;;5.82;2.00;;;19.90;99.90;;;;;;5029671;28;20338;-73
2022/08/03 06:42:04;;;;;;;5.93;1.95;;;20.00;99.90;;;;;;5026083;28;20034;-73
2022/08/03 06:44:30;;;;;;;5.70;1.63;;;20.10;99.90;;;;;;5024468;28;20060;-80
2022/08/03 06:46:56;;;;;;;7.05;2.30;;;20.10;99.90;;;;;;5018706;28;20036;-73
2022/08/03 06:49:21;;;;;;;6.35;2.83;;;20.10;99.90;;;;;;5026081;28;20030;-72
2022/08/03 06:51:49;;;;;;;23.83;4.00;;;20.20;99.90;;;;;;5020234;28;20037;-73
2022/08/03 06:54:15;;;;;;;6.70;3.03;;;20.30;99.90;;;;;;5013213;28;20069;-73
2022/08/03 06:56:41;;;;;;;11.60;3.13;;;20.30;99.90;;;;;;5020713;28;20084;-73
2022/08/03 06:59:06;;;;;;;7.05;2.58;;;20.30;99.90;;;;;;5021387;28;20044;-72
2022/08/03 07:01:32;;;;;;;6.50;2.60;;;20.40;99.90;;;;;;5028269;28;20048;-73
2022/08/03 07:03:59;;;;;;;4.70;2.60;;;20.40;99.90;;;;;;5025776;28;20033;-72
2022/08/03 07:06:24;;;;;;;12.65;3.33;;;20.50;99.90;;;;;;5021960;28;21088;-72
2022/08/03 07:08:50;;;;;;;8.93;2.58;;;20.50;99.90;;;;;;5025895;28;20113;-72
2022/08/03 07:11:16;;;;;;;7.65;3.40;;;20.60;99.90;;;;;;5025182;28;20506;-73
2022/08/03 07:13:42;;;;;;;8.60;2.92;;;20.70;99.90;;;;;;5015065;28;20091;-73
2022/08/03 07:16:08;;;;;;;12.13;3.33;;;20.70;99.90;;;;;;5020918;28;20042;-73
2022/08/03 07:18:37;;;;;;;9.52;3.00;;;20.70;99.90;;;;;;5020288;28;20041;-72
2022/08/03 07:21:03;;;;;;;7.57;2.92;;;20.80;99.90;;;;;;5025174;28;20402;-73
2022/08/03 07:23:29;;;;;;;8.00;3.10;;;20.80;99.90;;;;;;5019891;28;20117;-73
2022/08/03 07:25:54;;;;;;;7.68;2.90;;;20.80;99.90;;;;;;5027018;28;20029;-72
2022/08/03 07:28:20;;;;;;;8.20;3.53;;;20.80;99.90;;;;;;5025768;28;20045;-73
2022/08/03 07:30:46;;;;;;;11.63;4.38;;;20.90;99.90;;;;;;5020074;28;20045;-73
2022/08/03 07:33:11;;;;;;;7.53;3.55;;;20.90;99.90;;;;;;5027792;28;20049;-73
2022/08/03 07:35:38;;;;;;;10.90;3.55;;;21.00;99.90;;;;;;5018048;28;20040;-73
2022/08/03 07:38:03;;;;;;;;;;;21.00;99.90;;;;;;5018364;28;20038;-72
2022/08/03 07:40:29;;;;;;;9.80;3.33;;;21.00;99.90;;;;;;5025950;28;19917;-73
2022/08/03 07:42:54;;;;;;;8.07;3.88;;;21.00;99.90;;;;;;5022854;28;20111;-73
2022/08/03 07:45:22;;;;;;;8.18;3.90;;;21.00;99.90;;;;;;5020922;28;20038;-72
2022/08/03 07:47:47;;;;;;;11.40;4.28;;;21.00;99.90;;;;;;5019368;28;20041;-73
2022/08/03 07:50:13;;;;;;;13.77;3.72;;;21.00;99.90;;;;;;5032731;28;20462;-73
2022/08/03 07:52:48;;;;;;;7.28;3.83;;;21.00;99.90;;;;;;5012148;28;20052;-73
2022/08/03 07:55:15;;;;;;;7.72;4.50;;;21.10;99.90;;;;;;5004678;28;20050;-73
2022/08/03 07:57:40;;;;;;;7.88;4.15;;;21.20;99.90;;;;;;5014508;28;20041;-73
2022/08/03 08:00:11;;;;;;;;;;;21.30;99.90;;;;;;5026770;28;20034;-72
2022/08/03 08:02:37;;;;;;;7.32;4.20;;;21.40;99.90;;;;;;5017178;28;19924;-72
2022/08/03 08:05:02;;;;;;;;;;;21.50;99.90;;;;;;5021888;28;20401;-73
2022/08/03 08:07:28;;;;;;;7.70;4.55;;;21.60;99.90;;;;;;5014902;28;20016;-72
2022/08/03 08:09:53;;;;;;;;;;;21.70;99.90;;;;;;5021906;28;20046;-72
2022/08/03 08:12:19;;;;;;;4.97;3.47;;;21.80;99.90;;;;;;5018065;28;20173;-73
2022/08/03 08:14:45;;;;;;;;;;;21.90;99.90;;;;;;5018711;28;20064;-72
2022/08/03 08:17:11;;;;;;;7.05;3.90;;;21.90;99.90;;;;;;5022907;28;19917;-72
2022/08/03 08:19:37;;;;;;;8.45;4.68;;;22.00;99.90;;;;;;5022643;28;20181;-72
2022/08/03 08:22:03;;;;;;;;;;;22.20;99.90;;;;;;5026196;28;20065;-72
2022/08/03 08:24:32;;;;;;;9.60;4.28;;;22.30;99.90;;;;;;5019315;28;19921;-72
2022/08/03 08:26:59;;;;;;;8.68;4.65;;;22.30;99.90;;;;;;5021560;28;20041;-71
2022/08/03 08:29:25;;;;;;;9.80;4.20;;;22.30;99.90;;;;;;5014419;28;20053;-69
2022/08/03 08:31:51;;;;;;;;;;;22.20;99.90;;;;;;5065040;22;20139;-73
2022/08/03 08:34:17;;;;;;;8.52;4.20;;;22.20;99.90;;;;;;5054905;28;19924;-73
2022/08/03 08:36:42;;;;;;;9.75;4.82;;;22.20;99.90;;;;;;5053230;28;20037;-73
2022/08/03 08:39:08;;;;;;;;;;;22.20;99.90;;;;;;5054434;28;20530;-73
2022/08/03 08:41:34;;;;;;;9.55;4.35;;;22.30;99.90;;;;;;5058776;28;20310;-73
2022/08/03 08:44:01;;;;;;;9.00;3.97;;;22.30;99.90;;;;;;5049353;28;20910;-73
2022/08/03 08:46:30;;;;;;;6.93;4.60;;;22.30;99.90;;;;;;5046946;28;20060;-73
2022/08/03 08:48:57;;;;;;;6.97;4.07;;;22.40;99.90;;;;;;5055982;28;20111;-73
2022/08/03 08:51:28;;;;;;;8.35;4.47;;;22.40;99.90;;;;;;5054469;28;20150;-73
2022/08/03 08:53:56;;;;;;;13.43;5.10;;;22.40;99.90;;;;;;5050407;28;20051;-73
2022/08/03 08:56:24;;;;;;;9.23;4.70;;;22.50;99.90;;;;;;5046421;28;20097;-73
2022/08/03 08:59:00;;;;;;;12.18;5.30;;;22.60;99.90;;;;;;5045087;28;20484;-73
2022/08/03 09:01:27;;;;;;;5.93;3.70;;;22.70;99.90;;;;;;5064599;28;20203;-74
2022/08/03 09:03:56;;;;;;;12.48;3.58;;;22.70;99.90;;;;;;5065254;28;20037;-74
2022/08/03 09:06:30;;;;;;;8.15;4.50;;;22.70;99.90;;;;;;5045511;28;20040;-70
2022/08/03 09:09:11;;;;;;;7.45;4.53;;;22.70;99.90;;;;;;4994362;28;20037;-71
2022/08/03 09:11:42;;;;;;;10.87;4.97;;;22.90;99.90;;;;;;5017019;28;20087;-73
2022/08/03 09:14:09;;;;;;;14.50;5.20;;;22.90;99.90;;;;;;5052976;28;20106;-73
2022/08/03 09:16:36;;;;;;;7.85;4.70;;;23.10;99.90;;;;;;5049162;28;20036;-73
2022/08/03 09:19:13;;;;;;;9.63;5.03;;;23.20;99.90;;;;;;5039817;28;20059;-73
2022/08/03 09:21:40;;;;;;;8.73;4.82;;;23.30;99.90;;;;;;4930666;28;20068;-71
2022/08/03 09:24:09;;;;;;;12.45;5.35;;;23.30;99.90;;;;;;5057711;28;20068;-72
2022/08/03 09:26:36;;;;;;;9.00;4.68;;;23.40;99.90;;;;;;5039099;28;20048;-73
2022/08/03 09:29:09;;;;;;;10.82;4.47;;;23.50;99.90;;;;;;5069260;28;20404;-73
2022/08/03 09:31:42;;;;;;;9.77;4.78;;;23.50;99.90;;;;;;5045628;28;20098;-73
2022/08/03 09:34:12;;;;;;;11.52;5.22;;;23.50;99.90;;;;;;5005493;28;20040;-73
2022/08/03 09:36:47;;;;;;;10.05;5.13;;;23.60;99.90;;;;;;5065540;28;20070;-74
2022/08/03 09:39:22;;;;;;;12.02;4.57;;;23.70;99.90;;;;;;4993853;28;20087;-72
2022/08/03 09:42:22;;;;;;;11.73;4.88;;;23.70;99.90;;;;;;5030691;28;20040;-71
2022/08/03 09:44:50;;;;;;;17.15;6.15;;;23.70;99.90;;;;;;5043652;28;20455;-71
2022/08/03 09:47:28;;;;;;;11.93;4.85;;;23.80;99.90;;;;;;5065310;28;20110;-71
2022/08/03 09:50:00;;;;;;;9.80;5.85;;;23.80;99.90;;;;;;5068799;28;20036;-71
2022/08/03 09:52:32;;;;;;;10.52;5.68;;;23.90;99.90;;;;;;5063758;28;20127;-71
2022/08/03 09:55:00;;;;;;;13.27;5.30;;;24.00;99.90;;;;;;5061313;28;20048;-71
2022/08/03 09:57:36;;;;;;;11.10;4.63;;;24.00;99.90;;;;;;5043374;28;20343;-71
2022/08/03 10:00:10;;;;;;;10.63;4.93;;;24.10;99.90;;;;;;5063501;28;20036;-71
2022/08/03 10:02:37;;;;;;;10.95;5.20;;;24.20;99.90;;;;;;5060188;28;20479;-72
2022/08/03 10:05:05;;;;;;;12.55;5.50;;;24.20;99.90;;;;;;5054551;28;20032;-71
2022/08/03 10:07:44;;;;;;;11.15;4.93;;;24.30;99.90;;;;;;5054512;28;20051;-71
2022/08/03 10:10:11;;;;;;;8.55;4.70;;;24.30;99.90;;;;;;5053012;28;20091;-71
2022/08/03 10:12:39;;;;;;;11.95;5.10;;;24.30;99.90;;;;;;5055866;28;20063;-74
2022/08/03 10:15:05;;;;;;;12.25;4.55;;;24.40;99.90;;;;;;5059660;28;20447;-73
2022/08/03 10:17:31;;;;;;;8.70;4.00;;;24.40;99.90;;;;;;5061222;28;20049;-73
2022/08/03 10:19:58;;;;;;;13.02;5.40;;;24.40;99.90;;;;;;5055538;28;20037;-73
2022/08/03 10:22:31;;;;;;;9.48;5.22;;;24.50;99.90;;;;;;5053226;28;20098;-73
2022/08/03 10:25:11;;;;;;;15.10;4.75;;;24.40;99.90;;;;;;5040593;28;20048;-73
2022/08/03 10:27:39;;;;;;;14.15;4.78;;;24.50;99.90;;;;;;5052433;28;20118;-73
2022/08/03 10:30:08;;;;;;;12.82;4.78;;;24.50;99.90;;;;;;5044778;28;20037;-74
2022/08/03 10:32:38;;;;;;;10.90;4.20;;;24.60;99.90;;;;;;5052386;28;20053;-73
2022/08/03 10:35:06;;;;;;;13.77;4.32;;;24.50;99.90;;;;;;5071945;28;20040;-73
2022/08/03 10:37:39;;;;;;;9.57;4.75;;;24.50;99.90;;;;;;5041398;28;20443;-73
2022/08/03 10:40:07;;;;;;;8.23;4.13;;;24.50;99.90;;;;;;5056976;28;20576;-73
2022/08/03 10:42:34;;;;;;;9.90;4.43;;;24.30;99.90;;;;;;5052562;28;20405;-73
2022/08/03 10:45:06;;;;;;;8.73;4.32;;;24.20;99.90;;;;;;5051448;28;20058;-73
2022/08/03 10:47:33;;;;;;;14.43;4.93;;;24.20;99.90;;;;;;5045081;28;20067;-73
2022/08/03 10:50:00;;;;;;;11.25;4.10;;;24.10;99.90;;;;;;5056745;28;20040;-73
2022/08/03 10:52:25;;;;;;;13.27;5.63;;;24.20;99.90;;;;;;5054686;28;20199;-73
2022/08/03 10:57:51;;;;;;;9.65;4.03;;;24.50;99.90;;;;;;5054786;28;20592;-73
2022/08/03 11:00:24;;;;;;;8.15;3.80;;;24.60;99.90;;;;;;5048156;28;20097;-73
2022/08/03 11:03:10;;;;;;;11.80;4.43;;;24.80;99.90;;;;;;5062423;28;20068;-73
2022/08/03 11:05:38;;;;;;;15.48;4.20;;;24.90;99.90;;;;;;5051315;28;20120;-73
2022/08/03 11:08:26;;;;;;;17.75;4.63;;;25.00;99.90;;;;;;5056690;28;20565;-73
2022/08/03 11:10:58;;;;;;;12.43;4.10;;;25.10;99.90;;;;;;5049291;28;20575;-73
2022/08/03 11:13:29;;;;;;;9.20;3.45;;;25.10;99.90;;;;;;5068328;28;20376;-73
2022/08/03 11:15:57;;;;;;;9.05;2.78;;;25.10;99.90;;;;;;5049943;28;20064;-73
2022/08/03 11:18:23;;;;;;;8.07;3.03;;;25.20;99.90;;;;;;5053539;28;20045;-73
2022/08/03 11:20:55;;;;;;;7.97;3.53;;;25.40;99.90;;;;;;5057546;28;20028;-73
2022/08/03 11:23:47;;;;;;;8.38;3.05;;;25.50;99.90;;;;;;5051473;28;20056;-73
2022/08/03 11:26:18;;;;;;;16.50;3.70;;;25.50;99.90;;;;;;5055046;28;20036;-73
2022/08/03 11:28:47;;;;;;;10.10;3.35;;;25.70;99.90;;;;;;5045692;28;20052;-73
2022/08/03 11:31:22;;;;;;;11.52;3.28;;;25.70;99.90;;;;;;5053718;28;20045;-73
2022/08/03 11:34:07;;;;;;;10.68;3.40;;;25.80;99.90;;;;;;5051661;28;20178;-73
2022/08/03 11:37:10;;;;;;;8.63;2.72;;;25.90;99.90;;;;;;5051923;28;20057;-73
2022/08/03 11:39:42;;;;;;;8.85;2.80;;;26.00;99.90;;;;;;5047142;28;20115;-73
2022/08/03 11:42:23;;;;;;;14.02;3.50;;;26.10;99.90;;;;;;5053843;28;20044;-73
2022/08/03 11:44:53;;;;;;;7.55;3.10;;;26.10;99.90;;;;;;5058682;28;20192;-73
2022/08/03 11:47:25;;;;;;;14.32;3.58;;;26.20;99.90;;;;;;5054980;28;20048;-73
2022/08/03 11:49:53;;;;;;;9.52;3.10;;;26.20;99.90;;;;;;5058461;28;20059;-74
2022/08/03 11:52:19;;;;;;;10.30;3.00;;;26.30;99.90;;;;;;5049265;28;20506;-73
2022/08/03 11:54:49;;;;;;;10.85;3.40;;;26.40;99.90;;;;;;5048251;28;20028;-73
2022/08/03 11:57:28;;;;;;;9.75;3.03;;;26.40;99.90;;;;;;5047475;28;20052;-73
2022/08/03 11:59:53;;;;;;;8.48;2.30;;;26.40;99.90;;;;;;5045157;28;20092;-73
2022/08/03 12:02:19;;;;;;;9.15;2.55;;;26.40;99.90;;;;;;5052959;28;20485;-73
2022/08/03 12:04:52;;;;;;;6.78;2.85;;;26.50;99.90;;;;;;5054480;28;20041;-73
2022/08/03 12:07:18;;;;;;;10.75;2.55;;;26.50;99.90;;;;;;5051710;28;20041;-73
2022/08/03 12:10:08;;;;;;;10.48;2.70;;;26.60;99.90;;;;;;5047103;28;20033;-73
2022/08/03 12:12:34;;;;;;;12.23;2.58;;;26.80;99.90;;;;;;5048886;28;20116;-73
2022/08/03 12:15:00;;;;;;;14.02;3.30;;;26.90;99.90;;;;;;5051096;28;20124;-73
2022/08/03 12:17:33;;;;;;;15.07;4.00;;;27.00;99.90;;;;;;5055762;28;20040;-73
2022/08/03 12:19:59;;;;;;;11.48;2.67;;;27.00;99.90;;;;;;5049853;28;20033;-73
2022/08/03 12:22:39;;;;;;;8.73;2.85;;;27.10;99.90;;;;;;5054920;28;20110;-73
2022/08/03 12:25:08;;;;;;;8.23;2.42;;;27.10;99.90;;;;;;5051114;28;20527;-73
2022/08/03 12:27:35;;;;;;;10.35;3.05;;;27.10;99.90;;;;;;5053854;28;20080;-73
2022/08/03 12:30:01;;;;;;;10.35;2.88;;;27.10;99.90;;;;;;5048800;28;20095;-72
2022/08/03 12:32:28;;;;;;;7.85;3.03;;;27.10;99.90;;;;;;5053680;28;20032;-72
2022/08/03 12:34:59;;;;;;;7.78;3.75;;;27.10;99.90;;;;;;5052630;28;20084;-73
2022/08/03 12:37:26;;;;;;;7.40;2.80;;;27.20;99.90;;;;;;5053278;28;20041;-73
2022/08/03 12:39:58;;;;;;;8.57;3.22;;;27.10;99.90;;;;;;5049625;28;20453;-74
2022/08/03 12:42:31;;;;;;;7.95;2.55;;;27.20;99.90;;;;;;5052306;28;20045;-73
2022/08/03 12:44:56;;;;;;;8.27;3.33;;;27.10;99.90;;;;;;5049613;28;20462;-72
2022/08/03 12:47:22;;;;;;;16.83;4.38;;;27.10;99.90;;;;;;5053476;28;20048;-73
2022/08/03 12:49:52;;;;;;;6.15;3.00;;;27.00;99.90;;;;;;5057866;28;20751;-73
2022/08/03 12:52:20;;;;;;;12.73;3.55;;;27.10;99.90;;;;;;5049519;28;20089;-73
2022/08/03 12:54:57;;;;;;;11.73;3.72;;;27.10;99.90;;;;;;5044890;28;20072;-73
2022/08/03 12:57:23;;;;;;;9.30;3.33;;;27.10;99.90;;;;;;5042639;28;20090;-73
2022/08/03 12:59:49;;;;;;;7.93;3.40;;;27.10;99.90;;;;;;5037317;28;20234;-73
2022/08/03 13:02:17;;;;;;;12.63;3.92;;;27.10;99.90;;;;;;5057971;28;20044;-73
2022/08/03 13:04:44;;;;;;;9.45;3.50;;;27.20;99.90;;;;;;5050692;28;20049;-73
2022/08/03 13:07:11;;;;;;;12.93;4.65;;;27.30;99.90;;;;;;5050881;28;20037;-73
2022/08/03 13:09:50;;;;;;;9.85;4.10;;;27.30;99.90;;;;;;5057781;28;20497;-73